Minneapolis/St.Paul Radar Regional Satellite Twin Cities Traffic Info Map
Radar Satellite Traffic Traffic Cams
KLVN - Lakeville, Minnesota, USA
Distance from station: ENE 4mi, 6km
Updated: Thu, 22-Feb-2018 4:15am CST

 Wind from calm
Wind: Calm
Temperature: 1°F , -17°C
Dew Point: 1°F , -17°C
Humidity: 100%
Barometer: 30.59 inHg , 1035.9 hPa
Visibility: 10 miles , 16 km
2018/02/22 10:15 KLVN 221015Z AUTO 00000KT 10SM M17/M17 A3059 RMK AO2
KFCM - Eden Prairie, Minnesota, USA
Distance from station: NNW 17mi, 28km
Updated: Thu, 22-Feb-2018 3:53am CST
Clear
Clear
 Wind from ENE
Wind: ENE 5 mph , 7 km/h
Temperature: 3°F , -16°C
Wind Chill: -7°F , -22°C
Dew Point: -0°F , -18°C
Humidity: 85%
Barometer: 30.59 inHg , 1035.9 hPa
Clouds: Clear
Visibility: 10 miles , 16 km
2018/02/22 09:53 KFCM 220953Z AUTO 07004KT 10SM CLR M16/M18 A3059 RMK AO2 SLP378 I1000 T11561178
 
KSYN - Stanton, Minnesota, USA
Distance from station: SE 18mi, 28km
Updated: Thu, 22-Feb-2018 4:15am CST
Clear
Clear
 Wind from calm
Wind: Calm
Temperature: 3°F , -16°C
Dew Point: -2°F , -19°C
Humidity: 78%
Barometer: 30.58 inHg , 1035.6 hPa
Clouds: Clear
Visibility: 10 miles , 16 km
2018/02/22 10:15 KSYN 221015Z AUTO 00000KT 10SM CLR M16/M19 A3058 RMK AO2 T11651186
KFBL - Faribault, Minnesota, USA
Distance from station: S 19mi, 31km
Updated: Thu, 22-Feb-2018 4:15am CST
Mostly Cloudy
Mostly Cloudy
 Wind from calm
Wind: Calm
Temperature: 9°F , -13°C
Dew Point: 3°F , -16°C
Humidity: 78%
Barometer: 30.58 inHg , 1035.6 hPa
Clouds: Mostly Cloudy
Visibility: 10 miles , 16 km
Cloud details: Mostly Cloudy 11000 ft
2018/02/22 10:15 KFBL 221015Z AUTO 00000KT 10SM BKN110 M13/M16 A3058 RMK AO2
 
KMSP - Minneapolis, Minnesota, USA
Distance from station: N 19mi, 31km
Updated: Thu, 22-Feb-2018 3:53am CST
Mostly Cloudy
Mostly Cloudy
 Wind from calm
Wind: Calm
Temperature: 9°F , -13°C
Dew Point: 3°F , -16°C
Humidity: 78%
Barometer: 30.61 inHg , 1036.6 hPa
Clouds: Mostly Cloudy
Visibility: 10 miles , 16 km
Cloud details: Few Clouds 14000 ft
Mostly Cloudy 30000 ft
2018/02/22 09:53 KMSP 220953Z 00000KT 10SM FEW140 BKN300 M13/M16 A3061 RMK AO2 SLP383 T11331161